createdAt,value
2018-05-14T00:02:20.599Z,4.83
2018-05-14T00:04:48.827Z,5.57
2018-05-14T00:07:16.383Z,4.97
2018-05-14T00:09:43.918Z,5.57
2018-05-14T00:12:11.503Z,4.77
2018-05-14T00:14:40.089Z,5.57
2018-05-14T00:17:07.867Z,5.23
2018-05-14T00:19:36.030Z,4.40
2018-05-14T00:22:03.622Z,4.43
2018-05-14T00:24:31.194Z,4.77
2018-05-14T00:26:59.708Z,4.90
2018-05-14T00:29:28.019Z,4.30
2018-05-14T00:31:56.309Z,5.43
2018-05-14T00:34:24.589Z,5.07
2018-05-14T00:36:52.146Z,5.63
2018-05-14T00:39:19.724Z,4.70
2018-05-14T00:41:48.097Z,4.70
2018-05-14T00:44:16.641Z,4.93
2018-05-14T00:46:44.805Z,5.50
2018-05-14T00:49:13.169Z,4.30
2018-05-14T00:51:40.724Z,4.80
2018-05-14T00:54:09.219Z,4.97
2018-05-14T00:56:37.229Z,5.57
2018-05-14T00:59:04.829Z,4.63
2018-05-14T01:01:32.955Z,4.50
2018-05-14T01:04:00.505Z,4.50
2018-05-14T01:06:28.934Z,4.53
2018-05-14T01:08:56.460Z,4.90
2018-05-14T01:11:24.052Z,4.70
2018-05-14T01:13:52.163Z,5.00
2018-05-14T01:16:19.732Z,4.60
2018-05-14T01:18:48.042Z,5.27
2018-05-14T01:21:15.578Z,5.03
2018-05-14T01:23:43.217Z,5.07
2018-05-14T01:26:10.798Z,4.37
2018-05-14T01:28:38.628Z,5.10
2018-05-14T01:31:08.235Z,4.50
2018-05-14T01:33:36.695Z,5.40
2018-05-14T01:36:04.267Z,4.67
2018-05-14T01:38:31.956Z,6.10
2018-05-14T01:41:00.162Z,5.30
2018-05-14T01:43:28.184Z,4.93
2018-05-14T01:45:55.843Z,5.40
2018-05-14T01:48:24.331Z,4.53
2018-05-14T01:50:52.340Z,5.40
2018-05-14T01:53:19.930Z,5.30
2018-05-14T01:55:47.500Z,5.30
2018-05-14T01:58:15.088Z,4.60
2018-05-14T02:00:43.611Z,4.70
2018-05-14T02:03:11.148Z,4.90
2018-05-14T02:05:39.429Z,5.37
2018-05-14T02:08:07.708Z,4.70
2018-05-14T02:10:35.293Z,5.53
2018-05-14T02:13:02.898Z,5.47
2018-05-14T02:15:30.990Z,5.27
2018-05-14T02:17:59.310Z,5.10
2018-05-14T02:20:27.081Z,5.37
2018-05-14T02:22:54.623Z,5.53
2018-05-14T02:25:22.319Z,5.70
2018-05-14T02:27:49.901Z,5.63
2018-05-14T02:30:18.757Z,5.67
2018-05-14T02:32:46.340Z,5.80
2018-05-14T02:35:14.652Z,4.73
2018-05-14T02:37:42.715Z,5.83
2018-05-14T02:40:10.271Z,5.63
2018-05-14T02:42:38.347Z,5.37
2018-05-14T02:48:38.831Z,5.27
2018-05-14T02:51:07.807Z,4.90
2018-05-14T02:53:35.368Z,5.07
2018-05-14T02:56:02.909Z,4.87
2018-05-14T02:58:30.520Z,4.87
2018-05-14T03:00:58.731Z,4.97
2018-05-14T03:03:26.278Z,4.70
2018-05-14T03:05:54.345Z,5.03
2018-05-14T03:08:21.893Z,4.43
2018-05-14T03:10:49.435Z,5.63
2018-05-14T03:13:17.031Z,4.57
2018-05-14T03:15:45.260Z,4.83
2018-05-14T03:18:13.550Z,4.80
2018-05-14T03:20:41.077Z,5.00
2018-05-14T03:23:08.749Z,4.07
2018-05-14T03:25:36.305Z,4.50
2018-05-14T03:28:03.855Z,4.70
2018-05-14T03:30:32.098Z,4.60
2018-05-14T03:33:00.503Z,4.57
2018-05-14T03:35:28.749Z,4.50
2018-05-14T03:37:56.297Z,4.70
2018-05-14T03:40:23.851Z,4.13
2018-05-14T03:42:51.436Z,5.47
2018-05-14T03:45:19.665Z,4.40
2018-05-14T03:47:47.745Z,5.30
2018-05-14T03:50:16.095Z,4.70
2018-05-14T03:52:43.615Z,4.83
2018-05-14T03:55:11.150Z,4.30
2018-05-14T03:57:40.138Z,5.00
2018-05-14T04:00:21.444Z,4.40
2018-05-14T04:03:01.584Z,5.03
2018-05-14T04:05:41.256Z,4.53
2018-05-14T04:08:09.713Z,4.50
2018-05-14T04:10:38.199Z,4.40
2018-05-14T04:13:07.039Z,5.20
2018-05-14T04:15:35.127Z,4.63
2018-05-14T04:18:03.457Z,5.23
2018-05-14T04:20:30.992Z,4.50
2018-05-14T04:22:58.690Z,5.53
2018-05-14T04:25:26.271Z,5.10
2018-05-14T04:27:53.921Z,5.77
2018-05-14T04:30:22.548Z,5.70
2018-05-14T04:32:50.728Z,4.63
2018-05-14T04:35:18.842Z,4.70
2018-05-14T04:37:46.495Z,4.40
2018-05-14T04:40:14.028Z,5.07
2018-05-14T04:42:41.597Z,4.40
2018-05-14T04:45:10.053Z,6.57
2018-05-14T04:47:38.643Z,4.63
2018-05-14T04:50:08.054Z,5.60
2018-05-14T04:52:35.591Z,5.53
2018-05-14T04:55:03.133Z,6.60
2018-05-14T04:57:30.687Z,6.30
2018-05-14T04:59:58.233Z,6.37
2018-05-14T05:02:27.122Z,6.00
2018-05-14T05:04:55.350Z,5.97
2018-05-14T05:07:22.901Z,6.13
2018-05-14T05:09:50.568Z,6.20
2018-05-14T05:12:18.144Z,5.40
2018-05-14T05:14:46.313Z,5.10
2018-05-14T05:17:13.908Z,5.90
2018-05-14T05:19:41.994Z,5.30
2018-05-14T05:22:10.883Z,5.30
2018-05-14T05:24:39.006Z,5.40
2018-05-14T05:27:06.580Z,5.73
2018-05-14T05:29:34.857Z,5.23
2018-05-14T05:32:02.439Z,7.10
2018-05-14T05:34:31.468Z,4.97
2018-05-14T05:36:58.999Z,5.73
2018-05-14T05:39:26.543Z,5.40
2018-05-14T05:41:54.146Z,4.87
2018-05-14T05:44:22.414Z,5.20
2018-05-14T05:46:50.521Z,5.57
2018-05-14T05:49:18.694Z,5.33
2018-05-14T05:51:46.236Z,5.00
2018-05-14T05:54:13.760Z,5.60
2018-05-14T05:56:41.335Z,4.80
2018-05-14T05:59:09.447Z,6.17
2018-05-14T06:01:37.515Z,4.83
2018-05-14T06:04:05.146Z,5.90
2018-05-14T06:06:33.400Z,5.60
2018-05-14T06:09:00.960Z,5.57
2018-05-14T06:11:29.209Z,5.30
2018-05-14T06:13:57.634Z,5.70
2018-05-14T06:16:25.175Z,5.63
2018-05-14T06:18:53.653Z,5.73
2018-05-14T06:21:21.220Z,5.50
2018-05-14T06:23:48.779Z,5.40
2018-05-14T06:26:16.353Z,5.27
2018-05-14T06:28:44.432Z,5.40
2018-05-14T06:31:13.189Z,5.30
2018-05-14T06:33:41.335Z,5.30
2018-05-14T06:36:08.935Z,5.43
2018-05-14T06:38:36.677Z,4.97
2018-05-14T06:41:04.082Z,5.50
2018-05-14T06:43:31.622Z,4.83
2018-05-14T06:45:59.165Z,4.50
2018-05-14T06:48:27.591Z,4.73
2018-05-14T06:50:55.875Z,5.30
2018-05-14T06:53:23.431Z,5.07
2018-05-14T06:55:50.954Z,5.07
2018-05-14T06:58:18.547Z,5.10
2018-05-14T07:00:46.795Z,4.27
2018-05-14T07:03:14.374Z,4.87
2018-05-14T07:05:42.769Z,4.70
2018-05-14T07:08:10.323Z,4.90
2018-05-14T07:10:38.163Z,5.00
2018-05-14T07:13:05.860Z,5.13
2018-05-14T07:15:33.799Z,4.83
2018-05-14T07:18:02.051Z,4.63
2018-05-14T07:20:29.599Z,6.47
2018-05-14T07:22:57.159Z,5.07
2018-05-14T07:25:25.258Z,5.83
2018-05-14T07:27:52.795Z,5.00
2018-05-14T07:30:20.970Z,5.57
2018-05-14T07:32:48.536Z,5.47
2018-05-14T07:35:17.193Z,5.57
2018-05-14T07:37:44.726Z,4.43
2018-05-14T07:40:12.277Z,4.87
2018-05-14T07:42:40.135Z,5.90
2018-05-14T07:45:07.662Z,4.87
2018-05-14T07:47:35.974Z,5.63
2018-05-14T07:50:04.306Z,4.80
2018-05-14T07:52:31.860Z,5.20
2018-05-14T07:54:59.412Z,4.97
2018-05-14T07:57:26.984Z,5.43
2018-05-14T07:59:54.511Z,4.53
2018-05-14T08:02:22.796Z,5.67
2018-05-14T08:04:51.201Z,4.30
2018-05-14T08:07:18.817Z,5.60
2018-05-14T08:09:46.347Z,4.57
2018-05-14T08:12:13.947Z,4.27
2018-05-14T08:14:41.884Z,4.60
2018-05-14T08:17:12.384Z,4.07
2018-05-14T08:19:42.222Z,4.23
2018-05-14T08:22:11.392Z,4.27
2018-05-14T08:24:39.759Z,4.40
2018-05-14T08:27:07.445Z,4.07
2018-05-14T08:29:35.747Z,4.40
2018-05-14T08:32:03.306Z,3.73
2018-05-14T08:34:31.974Z,4.70
2018-05-14T08:36:59.543Z,4.47
2018-05-14T08:39:27.075Z,5.60
2018-05-14T08:41:54.643Z,4.20
2018-05-14T08:44:22.203Z,4.63
2018-05-14T08:46:49.846Z,4.10
2018-05-14T08:49:18.684Z,4.30
2018-05-14T08:51:46.228Z,4.30
2018-05-14T08:54:13.872Z,3.90
2018-05-14T08:56:41.372Z,4.47
2018-05-14T08:59:09.203Z,3.93
2018-05-14T09:01:37.773Z,4.30
2018-05-14T09:04:05.335Z,4.07
2018-05-14T09:06:33.310Z,3.90
2018-05-14T09:09:00.868Z,4.10
2018-05-14T09:11:28.409Z,4.30
2018-05-14T09:13:56.947Z,4.17
2018-05-14T09:16:25.131Z,3.70
2018-05-14T09:18:53.572Z,4.30
2018-05-14T09:21:22.196Z,3.83
2018-05-14T09:23:49.734Z,3.97
2018-05-14T09:26:17.267Z,3.63
2018-05-14T09:28:44.866Z,4.00
2018-05-14T09:31:12.931Z,3.73
2018-05-14T09:33:41.475Z,3.60
2018-05-14T09:36:09.244Z,3.57
2018-05-14T09:38:36.792Z,3.80
2018-05-14T09:41:04.358Z,3.30
2018-05-14T09:43:31.922Z,3.40
2018-05-14T09:45:59.577Z,3.63
2018-05-14T09:48:27.753Z,3.50
2018-05-14T09:50:56.106Z,4.30
2018-05-14T09:53:23.662Z,3.70
2018-05-14T09:55:51.194Z,3.90
2018-05-14T09:58:18.758Z,3.33
2018-05-14T10:00:47.082Z,3.73
2018-05-14T10:03:14.607Z,3.33
2018-05-14T10:05:42.642Z,3.80
2018-05-14T10:08:10.184Z,3.50
2018-05-14T10:10:38.708Z,3.47
2018-05-14T10:13:06.384Z,3.37
2018-05-14T10:15:34.394Z,3.57
2018-05-14T10:18:02.447Z,3.43
2018-05-14T10:20:29.997Z,3.20
2018-05-14T10:22:57.535Z,4.27
2018-05-14T10:25:25.111Z,3.50
2018-05-14T10:27:52.651Z,3.90
2018-05-14T10:30:21.405Z,3.90
2018-05-14T10:32:48.939Z,3.93
2018-05-14T10:35:17.308Z,3.13
2018-05-14T10:37:45.008Z,4.43
2018-05-14T10:40:12.547Z,3.10
2018-05-14T10:42:40.131Z,3.83
2018-05-14T10:45:08.060Z,3.63
2018-05-14T10:47:36.407Z,3.70
2018-05-14T10:50:05.090Z,3.73
2018-05-14T10:52:32.691Z,3.70
2018-05-14T10:55:00.247Z,3.77
2018-05-14T10:57:27.830Z,3.17
2018-05-14T10:59:55.375Z,3.80
2018-05-14T11:02:23.545Z,4.10
2018-05-14T11:04:51.883Z,3.83
2018-05-14T11:07:19.407Z,3.37
2018-05-14T11:09:46.938Z,3.70
2018-05-14T11:12:14.521Z,3.60
2018-05-14T11:14:42.886Z,3.73
2018-05-14T11:17:10.987Z,3.33
2018-05-14T11:19:39.378Z,3.70
2018-05-14T11:22:06.932Z,3.60
2018-05-14T11:24:34.463Z,3.33
2018-05-14T11:27:02.048Z,3.37
2018-05-14T11:29:30.326Z,3.00
2018-05-14T11:31:57.874Z,4.20
2018-05-14T11:34:26.007Z,3.50
2018-05-14T11:36:53.560Z,3.87
2018-05-14T11:39:21.095Z,3.60
2018-05-14T11:41:48.659Z,3.90
2018-05-14T11:44:16.191Z,3.40
2018-05-14T11:46:43.935Z,4.30
2018-05-14T11:49:12.151Z,3.37
2018-05-14T11:51:40.123Z,3.53
2018-05-14T11:54:07.682Z,3.37
2018-05-14T11:56:35.378Z,3.23
2018-05-14T11:59:02.855Z,3.17
2018-05-14T12:01:31.309Z,3.10
2018-05-14T12:03:58.892Z,3.70
2018-05-14T12:06:27.219Z,3.70
2018-05-14T12:08:54.802Z,3.40
2018-05-14T12:11:22.342Z,3.67
2018-05-14T12:13:51.195Z,3.33
2018-05-14T12:16:18.762Z,4.10
2018-05-14T12:18:46.944Z,3.00
2018-05-14T12:21:14.482Z,3.70
2018-05-14T12:23:42.002Z,3.03
2018-05-14T12:26:10.504Z,3.83
2018-05-14T12:28:38.483Z,3.00
2018-05-14T12:31:06.495Z,3.60
2018-05-14T12:33:34.727Z,3.30
2018-05-14T12:36:02.384Z,3.70
2018-05-14T12:38:29.922Z,3.50
2018-05-14T12:40:57.516Z,3.47
2018-05-14T12:43:25.056Z,3.50
2018-05-14T12:45:53.896Z,3.40
2018-05-14T12:48:22.013Z,4.00
2018-05-14T12:50:50.555Z,3.23
2018-05-14T12:53:18.123Z,3.47
2018-05-14T12:55:45.670Z,2.93
2018-05-14T12:58:13.255Z,3.73
2018-05-14T13:00:41.187Z,2.90
2018-05-14T13:03:09.615Z,3.60
2018-05-14T13:05:38.029Z,3.33
2018-05-14T13:08:05.583Z,3.20
2018-05-14T13:10:33.777Z,3.53
2018-05-14T13:13:01.492Z,3.57
2018-05-14T13:15:29.591Z,3.07
2018-05-14T13:17:57.700Z,3.30
2018-05-14T13:20:25.304Z,3.17
2018-05-14T13:22:52.879Z,3.67
2018-05-14T13:25:20.456Z,3.20
2018-05-14T13:27:47.979Z,3.43
2018-05-14T13:30:16.035Z,3.20
2018-05-14T13:32:43.575Z,3.40
2018-05-14T13:35:11.876Z,3.07
2018-05-14T13:37:39.790Z,3.27
2018-05-14T13:40:07.410Z,3.53
2018-05-14T13:42:35.048Z,3.13
2018-05-14T13:45:02.588Z,3.53
2018-05-14T13:47:30.961Z,3.27
2018-05-14T13:49:59.233Z,3.67
2018-05-14T13:52:26.795Z,3.50
2018-05-14T13:54:54.343Z,3.50
2018-05-14T13:57:21.945Z,3.17
2018-05-14T13:59:49.484Z,3.60
2018-05-14T14:02:17.735Z,3.00
2018-05-14T14:04:45.849Z,3.37
2018-05-14T14:07:13.386Z,3.23
2018-05-14T14:09:41.422Z,3.27
2018-05-14T14:12:09.186Z,3.00
2018-05-14T14:14:37.591Z,3.57
2018-05-14T14:17:05.679Z,3.30
2018-05-14T14:19:33.655Z,3.13
2018-05-14T14:22:01.196Z,3.43
2018-05-14T14:24:28.791Z,3.20
2018-05-14T14:26:56.323Z,3.73
2018-05-14T14:29:24.722Z,3.40
2018-05-14T14:31:53.004Z,3.73
2018-05-14T14:34:21.101Z,3.03
2018-05-14T14:36:48.627Z,3.37
2018-05-14T14:39:16.160Z,3.30
2018-05-14T14:41:43.727Z,3.63
2018-05-14T14:44:11.265Z,3.50
2018-05-14T14:46:39.891Z,3.10
2018-05-14T14:49:08.362Z,3.50
2018-05-14T14:51:35.877Z,3.30
2018-05-14T14:54:03.442Z,3.27
2018-05-14T14:56:31.019Z,3.33
2018-05-14T14:58:58.582Z,3.30
2018-05-14T15:01:26.739Z,3.00
2018-05-14T15:03:54.279Z,3.70
2018-05-14T15:06:22.275Z,3.00
2018-05-14T15:08:49.810Z,4.80
2018-05-14T15:11:17.374Z,3.10
2018-05-14T15:13:45.011Z,3.30
2018-05-14T15:16:13.403Z,2.60
2018-05-14T15:18:41.309Z,3.20
2018-05-14T15:21:09.137Z,2.90
2018-05-14T15:23:36.707Z,3.13
2018-05-14T15:26:04.269Z,2.83
2018-05-14T15:28:31.814Z,2.80
2018-05-14T15:31:00.102Z,2.87
2018-05-14T15:33:28.854Z,2.93
2018-05-14T15:35:56.386Z,3.13
2018-05-14T15:38:23.933Z,2.93
2018-05-14T15:40:51.560Z,4.07
2018-05-14T15:43:19.086Z,2.60
2018-05-14T15:45:46.625Z,3.20
2018-05-14T15:48:14.590Z,2.60
2018-05-14T15:50:42.691Z,2.80
2018-05-14T15:53:10.236Z,2.60
2018-05-14T15:55:38.520Z,2.77
2018-05-14T15:58:06.123Z,2.53
2018-05-14T16:00:33.665Z,2.97
2018-05-14T16:03:01.789Z,3.00
2018-05-14T16:05:29.829Z,2.87
2018-05-14T16:07:58.005Z,2.77
2018-05-14T16:10:25.554Z,2.80
2018-05-14T16:12:53.102Z,3.93
2018-05-14T16:15:21.114Z,2.57
2018-05-14T16:17:49.217Z,2.93
2018-05-14T16:20:16.744Z,2.60
2018-05-14T16:22:44.298Z,3.33
2018-05-14T16:25:11.886Z,2.80
2018-05-14T16:27:40.088Z,3.13
2018-05-14T16:30:09.541Z,2.60
2018-05-14T16:32:37.107Z,3.03
2018-05-14T16:35:05.703Z,3.00
2018-05-14T16:37:33.253Z,3.00
2018-05-14T16:40:00.797Z,3.50
2018-05-14T16:42:28.380Z,3.57
2018-05-14T16:44:55.979Z,3.40
2018-05-14T16:47:24.396Z,3.10
2018-05-14T16:49:52.359Z,3.93
2018-05-14T16:52:19.904Z,3.20
2018-05-14T16:54:47.442Z,3.40
2018-05-14T16:57:15.020Z,3.23
2018-05-14T16:59:42.763Z,3.83
2018-05-14T17:02:10.832Z,3.33
2018-05-14T17:04:38.794Z,3.07
2018-05-14T17:07:08.483Z,4.00
2018-05-14T17:09:36.025Z,2.60
2018-05-14T17:12:03.591Z,3.43
2018-05-14T17:14:31.803Z,3.07
2018-05-14T17:17:00.035Z,3.00
2018-05-14T17:19:27.920Z,3.17
2018-05-14T17:21:55.599Z,3.20
2018-05-14T17:24:23.140Z,3.70
2018-05-14T17:26:50.718Z,3.10
2018-05-14T17:29:18.900Z,3.30
2018-05-14T17:31:46.446Z,3.10
2018-05-14T17:34:15.230Z,4.50
2018-05-14T17:36:42.761Z,3.23
2018-05-14T17:39:11.141Z,3.77
2018-05-14T17:41:39.219Z,3.13
2018-05-14T17:44:06.995Z,3.80
2018-05-14T17:46:34.541Z,3.13
2018-05-14T17:49:03.205Z,3.23
2018-05-14T17:51:30.735Z,3.20
2018-05-14T17:53:59.306Z,4.77
2018-05-14T17:56:27.614Z,3.77
2018-05-14T17:58:55.771Z,3.73
2018-05-14T18:01:23.734Z,3.77
2018-05-14T18:03:51.288Z,5.00
2018-05-14T18:06:19.415Z,4.50
2018-05-14T18:08:47.921Z,4.13
2018-05-14T18:11:15.457Z,4.27
2018-05-14T18:13:43.019Z,6.20
2018-05-14T18:16:11.244Z,7.80
2018-05-14T18:18:40.174Z,6.83
2018-05-14T18:21:12.520Z,5.73
2018-05-14T18:23:46.890Z,4.90
2018-05-14T18:26:17.300Z,4.63
2018-05-14T18:28:49.210Z,4.73
2018-05-14T18:31:23.875Z,5.00
2018-05-14T18:33:53.701Z,4.10
2018-05-14T18:36:21.293Z,5.87
2018-05-14T18:38:48.835Z,4.90
2018-05-14T18:41:16.421Z,4.03
2018-05-14T18:43:43.959Z,4.27
2018-05-14T18:46:11.484Z,7.00
2018-05-14T18:48:39.932Z,4.23
2018-05-14T18:51:07.987Z,3.93
2018-05-14T18:53:35.552Z,3.60
2018-05-14T18:56:03.625Z,5.30
2018-05-14T18:58:31.177Z,3.77
2018-05-14T19:00:58.718Z,4.60
2018-05-14T19:03:27.000Z,4.33
2018-05-14T19:05:55.295Z,6.20
2018-05-14T19:08:23.300Z,5.50
2018-05-14T19:10:56.302Z,5.70
2018-05-14T19:13:23.835Z,4.63
2018-05-14T19:15:57.308Z,5.77
2018-05-14T19:18:25.566Z,4.57
2018-05-14T19:20:53.132Z,4.37
2018-05-14T19:23:26.071Z,5.53
2018-05-14T19:25:53.672Z,5.17
2018-05-14T19:28:26.724Z,5.07
2018-05-14T19:30:54.899Z,5.70
2018-05-14T19:33:29.587Z,5.27
2018-05-14T19:35:57.868Z,6.33
2018-05-14T19:38:25.396Z,5.20
2018-05-14T19:40:53.029Z,4.63
2018-05-14T19:43:20.554Z,4.57
2018-05-14T19:45:48.502Z,4.97
2018-05-14T19:48:16.585Z,4.70
2018-05-14T19:50:45.152Z,4.83
2018-05-14T19:53:12.738Z,4.30
2018-05-14T19:55:40.892Z,4.97
2018-05-14T19:58:08.756Z,6.33
2018-05-14T20:00:36.287Z,4.73
2018-05-14T20:03:03.871Z,4.87
2018-05-14T20:05:32.231Z,4.63
2018-05-14T20:08:00.388Z,4.60
2018-05-14T20:10:27.915Z,4.23
2018-05-14T20:12:55.673Z,4.90
2018-05-14T20:15:23.863Z,5.03
2018-05-14T20:17:51.907Z,4.97
2018-05-14T20:20:19.459Z,4.80
2018-05-14T20:22:47.015Z,5.40
2018-05-14T20:25:14.615Z,5.37
2018-05-14T20:27:42.182Z,4.80
2018-05-14T20:30:10.791Z,4.67
2018-05-14T20:32:38.749Z,4.70
2018-05-14T20:35:06.895Z,5.53
2018-05-14T20:37:34.436Z,4.80
2018-05-14T20:40:01.972Z,5.13
2018-05-14T20:42:29.552Z,5.30
2018-05-14T20:44:57.109Z,6.03
2018-05-14T20:47:25.548Z,5.60
2018-05-14T20:49:53.446Z,5.30
2018-05-14T20:52:21.532Z,5.10
2018-05-14T20:54:49.084Z,5.73
2018-05-14T20:57:16.622Z,4.90
2018-05-14T20:59:44.254Z,5.73
2018-05-14T21:02:11.822Z,5.50
2018-05-14T21:04:40.598Z,5.10
2018-05-14T21:07:09.108Z,6.23
2018-05-14T21:09:36.659Z,4.73
2018-05-14T21:12:04.231Z,5.63
2018-05-14T21:14:32.559Z,5.00
2018-05-14T21:17:00.881Z,5.73
2018-05-14T21:19:29.272Z,4.83
2018-05-14T21:21:56.808Z,5.97
2018-05-14T21:24:24.349Z,6.00
2018-05-14T21:26:51.950Z,5.47
2018-05-14T21:29:20.415Z,5.30
2018-05-14T21:31:48.667Z,5.47
2018-05-14T21:34:17.137Z,5.10
2018-05-14T21:36:44.678Z,5.03
2018-05-14T21:39:12.205Z,6.27
2018-05-14T21:41:40.238Z,4.90
2018-05-14T21:44:07.841Z,6.17
2018-05-14T21:46:35.419Z,4.93
2018-05-14T21:49:03.616Z,6.27
2018-05-14T21:51:31.149Z,5.53
2018-05-14T21:53:58.710Z,5.63
2018-05-14T21:56:26.699Z,5.23
2018-05-14T21:58:54.273Z,5.50
2018-05-14T22:01:21.818Z,5.40
2018-05-14T22:03:49.395Z,5.40
2018-05-14T22:06:17.634Z,5.27
2018-05-14T22:08:45.817Z,5.27
2018-05-14T22:11:13.353Z,5.73
2018-05-14T22:13:40.896Z,5.17
2018-05-14T22:16:09.051Z,5.67
2018-05-14T22:18:37.281Z,5.13
2018-05-14T22:21:04.812Z,5.60
2018-05-14T22:23:32.354Z,5.33
2018-05-14T22:25:59.924Z,5.20
2018-05-14T22:28:27.462Z,6.10
2018-05-14T22:30:55.781Z,5.40
2018-05-14T22:33:23.893Z,5.90
2018-05-14T22:35:52.018Z,5.20
2018-05-14T22:38:19.595Z,5.57
2018-05-14T22:40:47.129Z,5.10
2018-05-14T22:43:14.723Z,5.27
2018-05-14T22:45:42.260Z,5.23
2018-05-14T22:48:11.151Z,5.43
2018-05-14T22:50:39.767Z,4.83
2018-05-14T22:53:09.127Z,5.13
2018-05-14T22:55:36.716Z,5.30
2018-05-14T22:58:04.309Z,4.90
2018-05-14T23:00:31.872Z,5.37
2018-05-14T23:02:59.424Z,4.97
2018-05-14T23:05:27.802Z,6.10
2018-05-14T23:07:55.920Z,5.47
2018-05-14T23:10:23.450Z,6.03
2018-05-14T23:12:50.991Z,5.13
2018-05-14T23:15:19.217Z,6.07
2018-05-14T23:17:47.771Z,4.70
2018-05-14T23:20:15.359Z,5.87
2018-05-14T23:22:42.960Z,4.83
2018-05-14T23:25:10.549Z,5.00
2018-05-14T23:27:38.239Z,5.70
2018-05-14T23:30:06.672Z,4.93
2018-05-14T23:32:34.235Z,5.20
2018-05-14T23:35:02.627Z,5.63
2018-05-14T23:37:30.164Z,5.73
2018-05-14T23:39:57.746Z,6.13
2018-05-14T23:42:25.335Z,5.77
2018-05-14T23:44:53.431Z,7.53
2018-05-14T23:47:21.687Z,5.60
2018-05-14T23:49:49.921Z,5.30
2018-05-14T23:52:17.473Z,5.83
2018-05-14T23:54:45.239Z,5.20
2018-05-14T23:57:12.814Z,5.63
2018-05-14T23:59:40.383Z,5.30
